Time;durP1;ratioP1;P1;durP2;ratioP2;P2;SDS_P1;SDS_P2;PMS_P1;PMS_P2;Temp;Humidity;BMP_temperature;BMP_pressure;BME280_temperature;BME280_humidity;BME280_pressure;Samples;Min_cycle;Max_cycle;Signal;HPM_P1;HPM_P2
2023/12/26 14:54:25;;;;;;;10.53;2.10;;;10.00;99.90;;;;;;5119859;27;20524;-79
2023/12/26 14:56:50;;;;;;;9.13;2.17;;;9.90;99.90;;;;;;5093337;28;20167;-76
2023/12/26 14:59:16;;;;;;;8.07;2.07;;;9.80;99.90;;;;;;5103384;28;20604;-77
2023/12/26 15:01:41;;;;;;;10.70;2.63;;;9.70;99.90;;;;;;5101551;28;20663;-75
2023/12/26 15:04:07;;;;;;;10.47;2.70;;;9.70;99.90;;;;;;5095010;28;20839;-76
2023/12/26 15:06:33;;;;;;;9.17;2.23;;;9.60;99.90;;;;;;5103483;28;20664;-77
2023/12/26 15:08:58;;;;;;;12.17;2.90;;;9.60;99.90;;;;;;5103484;28;20586;-76
2023/12/26 15:11:25;;;;;;;9.10;2.83;;;9.60;99.90;;;;;;5088138;28;20246;-76
2023/12/26 15:13:51;;;;;;;17.67;2.60;;;9.60;99.90;;;;;;5096854;28;20203;-77
2023/12/26 15:16:20;;;;;;;10.47;2.40;;;9.60;99.90;;;;;;5099716;28;20227;-76
2023/12/26 15:18:46;;;;;;;16.00;2.80;;;9.60;99.90;;;;;;5097873;28;20178;-76
2023/12/26 15:21:12;;;;;;;8.87;2.73;;;9.50;99.90;;;;;;5103537;28;20169;-75
2023/12/26 15:23:38;;;;;;;13.80;3.03;;;9.50;99.90;;;;;;5097825;28;20615;-75
2023/12/26 15:26:14;;;;;;;12.93;3.03;;;9.50;99.90;;;;;;5089910;28;20175;-77
2023/12/26 15:28:43;;;;;;;12.30;2.97;;;9.40;99.90;;;;;;5089149;28;20184;-78
2023/12/26 15:31:15;;;;;;;7.20;2.93;;;9.40;99.90;;;;;;5100536;28;20649;-73
2023/12/26 15:33:42;;;;;;;6.53;2.70;;;9.40;99.90;;;;;;5089153;28;20286;-76
2023/12/26 15:36:18;;;;;;;11.57;2.83;;;9.30;99.90;;;;;;5107947;28;20626;-76
2023/12/26 15:38:44;;;;;;;12.97;2.83;;;9.30;99.90;;;;;;5106248;28;20237;-80
2023/12/26 15:41:10;;;;;;;9.43;3.50;;;9.30;99.90;;;;;;5078955;28;20180;-78
2023/12/26 15:43:36;;;;;;;14.93;3.80;;;9.10;99.90;;;;;;5093345;28;20172;-83
2023/12/26 15:46:01;;;;;;;13.73;3.47;;;9.20;99.90;;;;;;5093785;28;20667;-84
2023/12/26 15:48:29;;;;;;;9.90;3.70;;;9.20;99.90;;;;;;5088531;28;20188;-84
2023/12/26 15:50:54;;;;;;;16.07;3.53;;;9.10;99.90;;;;;;5089899;28;20175;-83
2023/12/26 15:53:20;;;;;;;11.33;3.80;;;9.10;99.90;;;;;;5094274;28;20231;-88
2023/12/26 15:55:46;;;;;;;9.10;3.27;;;9.10;99.90;;;;;;5102701;28;20226;-85
2023/12/26 15:58:12;;;;;;;8.60;3.50;;;9.00;99.90;;;;;;5106933;28;20266;-82
2023/12/26 16:00:40;;;;;;;8.17;3.27;;;9.00;99.90;;;;;;5108976;28;20182;-87
2023/12/26 16:03:05;;;;;;;14.90;4.90;;;8.90;99.90;;;;;;5108102;28;20186;-82
2023/12/26 16:05:34;;;;;;;14.93;3.93;;;8.90;99.90;;;;;;5079426;28;20662;-83
2023/12/26 16:08:03;;;;;;;12.63;4.67;;;8.90;99.90;;;;;;5058233;28;20185;-79
2023/12/26 16:10:29;;;;;;;11.13;4.47;;;8.80;99.90;;;;;;5068827;28;20194;-83
2023/12/26 16:12:55;;;;;;;10.23;4.00;;;8.90;99.90;;;;;;5083981;28;20207;-81
2023/12/26 16:15:20;;;;;;;10.23;3.90;;;8.80;99.90;;;;;;5085324;28;20180;-84
2023/12/26 16:17:46;;;;;;;13.20;4.83;;;8.80;99.90;;;;;;5094152;28;20168;-82
2023/12/26 16:20:12;;;;;;;13.60;4.80;;;8.80;99.90;;;;;;5076767;28;20169;-86
2023/12/26 16:22:38;;;;;;;9.87;4.13;;;8.70;99.90;;;;;;5076817;28;20262;-88
2023/12/26 16:25:04;;;;;;;10.93;4.67;;;8.70;99.90;;;;;;5080628;28;20267;-85
2023/12/26 16:27:30;;;;;;;12.90;4.20;;;8.70;99.90;;;;;;5082496;28;20263;-93
2023/12/26 16:29:55;;;;;;;10.63;3.93;;;8.70;99.90;;;;;;5061497;28;20179;-83
2023/12/26 16:32:21;;;;;;;18.67;4.50;;;8.60;99.90;;;;;;5060485;28;20212;-87
2023/12/26 16:34:47;;;;;;;13.40;5.77;;;8.60;99.90;;;;;;5083512;28;20202;-85
2023/12/26 16:37:13;;;;;;;14.47;5.33;;;8.50;99.90;;;;;;5096989;28;20696;-88
2023/12/26 16:39:38;;;;;;;9.57;3.97;;;8.50;99.90;;;;;;5092362;28;20180;-85
2023/12/26 16:42:07;;;;;;;9.17;4.07;;;8.40;99.90;;;;;;5079296;28;20184;-86
2023/12/26 16:44:41;;;;;;;20.33;4.37;;;8.50;99.90;;;;;;5076960;28;20180;-88
2023/12/26 16:47:07;;;;;;;30.17;5.30;;;8.40;99.90;;;;;;5089183;28;20228;-88
2023/12/26 16:49:33;;;;;;;11.40;4.23;;;8.40;99.90;;;;;;5075701;28;20183;-88
2023/12/26 16:51:59;;;;;;;10.47;4.30;;;8.40;99.90;;;;;;5090587;28;20236;-89
2023/12/26 16:54:25;;;;;;;50.93;23.83;;;8.40;99.90;;;;;;5080817;28;20630;-89
2023/12/26 16:56:50;;;;;;;14.27;5.50;;;8.30;99.90;;;;;;5084635;28;20179;-88
2023/12/26 16:59:16;;;;;;;12.80;5.60;;;8.30;99.90;;;;;;5110797;28;20244;-85
2023/12/26 17:01:42;;;;;;;9.33;4.73;;;8.20;99.90;;;;;;5107449;28;20364;-87
2023/12/26 17:04:18;;;;;;;7.63;4.60;;;8.20;99.90;;;;;;5072525;28;20172;-85
2023/12/26 17:06:44;;;;;;;24.67;12.57;;;8.10;99.90;;;;;;5082465;28;20266;-90
2023/12/26 17:09:10;;;;;;;13.77;6.70;;;8.00;99.90;;;;;;5091585;28;20211;-85
2023/12/26 17:11:36;;;;;;;19.00;9.27;;;8.00;99.90;;;;;;5077348;28;20182;-80
2023/12/26 17:14:02;;;;;;;25.47;16.40;;;7.90;99.90;;;;;;5066099;28;20219;-87
2023/12/26 17:16:28;;;;;;;17.13;7.90;;;7.90;99.90;;;;;;5081738;28;20263;-88
2023/12/26 17:18:54;;;;;;;14.93;5.20;;;7.90;99.90;;;;;;5079425;28;20616;-93
2023/12/26 17:21:20;;;;;;;15.17;6.60;;;7.80;99.90;;;;;;5057329;28;20183;-84
2023/12/26 17:23:46;;;;;;;16.63;6.90;;;7.70;99.90;;;;;;5075466;28;20195;-89
2023/12/26 17:26:14;;;;;;;10.97;5.50;;;7.60;99.90;;;;;;5090756;28;20245;-90
2023/12/26 17:28:40;;;;;;;12.43;5.50;;;7.70;99.90;;;;;;5078158;28;20643;-88
2023/12/26 17:31:07;;;;;;;12.40;5.53;;;7.60;99.90;;;;;;5076900;28;20191;-84
2023/12/26 17:33:33;;;;;;;14.77;6.43;;;7.60;99.90;;;;;;5085216;28;20239;-80
2023/12/26 17:35:59;;;;;;;14.33;6.13;;;7.50;99.90;;;;;;5075568;28;20179;-81
2023/12/26 17:38:24;;;;;;;11.60;7.40;;;7.50;99.90;;;;;;5095944;28;20638;-83
2023/12/26 17:40:50;;;;;;;11.50;6.40;;;7.50;99.90;;;;;;5102204;28;20177;-84
2023/12/26 17:43:16;;;;;;;17.47;8.03;;;7.50;99.90;;;;;;5087387;28;20180;-82
2023/12/26 17:45:41;;;;;;;16.50;9.20;;;7.40;99.90;;;;;;5106132;28;20167;-83
2023/12/26 17:48:07;;;;;;;14.67;7.47;;;7.40;99.90;;;;;;5097980;28;20204;-83
2023/12/26 17:50:33;;;;;;;17.60;8.30;;;7.40;99.90;;;;;;5084439;28;20199;-88
2023/12/26 17:52:59;;;;;;;14.50;7.23;;;7.60;99.90;;;;;;5092081;28;20580;-84
2023/12/26 17:55:24;;;;;;;17.00;8.47;;;7.30;99.90;;;;;;5092171;28;20215;-84
2023/12/26 17:57:50;;;;;;;17.33;7.13;;;7.30;99.90;;;;;;5087884;28;20180;-83
2023/12/26 18:00:16;;;;;;;12.77;6.97;;;7.30;99.90;;;;;;5092071;28;20172;-84
2023/12/26 18:02:42;;;;;;;10.10;5.80;;;7.30;99.90;;;;;;5094447;28;20257;-84
2023/12/26 18:05:07;;;;;;;12.23;5.93;;;7.20;99.90;;;;;;5085139;28;20204;-90
2023/12/26 18:07:34;;;;;;;11.60;6.37;;;7.20;99.90;;;;;;5082951;28;20203;-90
2023/12/26 18:10:00;;;;;;;23.87;12.50;;;7.20;99.90;;;;;;5081747;28;20275;-84
2023/12/26 18:12:26;;;;;;;22.77;11.70;;;7.20;99.90;;;;;;5074304;28;20689;-86
2023/12/26 18:14:51;;;;;;;22.07;11.10;;;7.10;99.90;;;;;;5081546;28;20179;-83
2023/12/26 18:17:17;;;;;;;17.57;9.00;;;7.10;99.90;;;;;;5098334;28;20196;-79
2023/12/26 18:19:44;;;;;;;16.20;7.43;;;7.10;99.90;;;;;;5098766;28;20176;-88
2023/12/26 18:22:10;;;;;;;13.57;7.43;;;7.20;99.90;;;;;;5091134;28;20238;-84
2023/12/26 18:24:35;;;;;;;20.03;8.47;;;7.20;99.90;;;;;;5093263;28;20185;-86
2023/12/26 18:27:01;;;;;;;19.33;11.30;;;7.20;99.90;;;;;;5098623;28;20620;-80
2023/12/26 18:29:27;;;;;;;19.23;10.10;;;7.20;99.90;;;;;;5090369;28;20181;-81
2023/12/26 18:31:53;;;;;;;20.27;11.30;;;7.20;99.90;;;;;;5083423;28;20250;-84
2023/12/26 18:34:19;;;;;;;13.60;7.17;;;7.20;99.90;;;;;;5091185;28;20694;-82
2023/12/26 18:36:45;;;;;;;14.23;6.93;;;7.20;99.90;;;;;;5076321;28;20180;-82
2023/12/26 18:39:11;;;;;;;15.13;7.63;;;7.30;99.90;;;;;;5076550;28;20658;-84
2023/12/26 18:41:42;;;;;;;16.00;6.77;;;7.30;99.90;;;;;;5071388;28;20184;-88
2023/12/26 18:44:08;;;;;;;13.13;6.70;;;7.30;99.90;;;;;;5079464;28;20175;-89
2023/12/26 18:46:37;;;;;;;13.97;6.83;;;7.30;99.90;;;;;;5082145;28;20260;-84
2023/12/26 18:49:05;;;;;;;13.03;7.63;;;7.40;99.90;;;;;;5088415;28;20172;-84
2023/12/26 18:51:30;;;;;;;11.37;8.20;;;7.40;99.90;;;;;;5075370;28;20680;-83
2023/12/26 18:53:56;;;;;;;24.93;9.10;;;7.40;99.90;;;;;;5071926;28;20216;-82
2023/12/26 18:56:22;;;;;;;11.47;7.00;;;7.40;99.90;;;;;;5057002;28;20581;-87
2023/12/26 18:58:48;;;;;;;12.40;6.93;;;7.40;99.90;;;;;;5083867;28;20203;-83
2023/12/26 19:01:15;;;;;;;18.73;7.80;;;7.40;99.90;;;;;;5060126;28;20221;-83
2023/12/26 19:03:41;;;;;;;21.80;8.60;;;7.50;99.90;;;;;;5090757;28;20168;-82
2023/12/26 19:06:07;;;;;;;18.40;8.60;;;7.50;99.90;;;;;;5091096;28;20646;-82
2023/12/26 19:08:33;;;;;;;24.17;8.10;;;7.50;99.90;;;;;;5091144;28;20178;-83
2023/12/26 19:10:59;;;;;;;16.03;7.97;;;7.50;99.90;;;;;;5068181;28;20167;-83
2023/12/26 19:13:25;;;;;;;14.90;7.20;;;7.50;99.90;;;;;;5072563;28;20666;-83
2023/12/26 19:15:52;;;;;;;18.37;8.10;;;7.50;99.90;;;;;;5081329;28;20179;-78
2023/12/26 19:18:22;;;;;;;20.30;8.47;;;7.60;99.90;;;;;;5077005;28;20670;-80
2023/12/26 19:20:47;;;;;;;19.07;9.03;;;7.60;99.90;;;;;;5074093;28;20197;-83
2023/12/26 19:23:14;;;;;;;28.07;10.33;;;7.70;99.90;;;;;;5090035;28;20265;-81
2023/12/26 19:25:41;;;;;;;17.13;8.23;;;7.70;99.90;;;;;;5086675;28;20179;-77
2023/12/26 19:28:08;;;;;;;19.37;8.33;;;7.70;99.90;;;;;;5060660;28;20272;-79
2023/12/26 19:30:35;;;;;;;17.07;7.70;;;7.70;99.90;;;;;;5071382;28;20204;-82
2023/12/26 19:33:01;;;;;;;18.27;8.50;;;7.70;99.90;;;;;;5070728;28;20321;-84
2023/12/26 19:35:27;;;;;;;14.10;7.40;;;7.70;99.90;;;;;;5069647;28;20241;-78
2023/12/26 19:37:52;;;;;;;17.30;7.33;;;7.80;99.90;;;;;;5084797;28;20176;-83
2023/12/26 19:40:18;;;;;;;19.27;7.67;;;7.80;99.90;;;;;;5076681;28;20635;-82
2023/12/26 19:42:44;;;;;;;17.73;8.13;;;7.70;99.90;;;;;;5089705;28;20178;-80
2023/12/26 19:45:10;;;;;;;20.27;7.90;;;7.80;99.90;;;;;;5092989;28;20225;-90
2023/12/26 19:47:35;;;;;;;19.57;7.30;;;7.80;99.90;;;;;;5077839;28;20203;-84
2023/12/26 19:50:01;;;;;;;13.83;6.80;;;7.80;99.90;;;;;;5077014;28;20664;-80
2023/12/26 19:52:27;;;;;;;18.07;6.90;;;7.80;99.90;;;;;;5060598;28;20714;-86
2023/12/26 19:54:53;;;;;;;22.10;7.40;;;7.80;99.90;;;;;;5086148;28;20266;-79
2023/12/26 19:57:21;;;;;;;20.20;6.80;;;7.80;99.90;;;;;;5090249;28;20259;-83
2023/12/26 19:59:47;;;;;;;11.03;5.70;;;7.80;99.90;;;;;;5074493;28;20173;-81
2023/12/26 20:02:13;;;;;;;17.13;6.80;;;7.80;99.90;;;;;;5079445;28;20172;-80
2023/12/26 20:04:38;;;;;;;17.90;6.10;;;7.80;99.90;;;;;;5093455;28;20571;-86
2023/12/26 20:07:05;;;;;;;15.40;6.87;;;7.80;99.90;;;;;;5095351;28;20497;-85
2023/12/26 20:09:31;;;;;;;16.00;6.13;;;7.90;99.90;;;;;;5085797;28;20172;-77
2023/12/26 20:11:56;;;;;;;16.27;6.27;;;7.90;99.90;;;;;;5087944;28;20204;-89
2023/12/26 20:14:23;;;;;;;16.53;6.07;;;7.90;99.90;;;;;;5086949;28;20178;-82
2023/12/26 20:16:49;;;;;;;14.03;5.90;;;7.90;99.90;;;;;;5085865;28;20273;-82
2023/12/26 20:19:17;;;;;;;15.23;5.63;;;7.90;99.90;;;;;;5083274;28;20181;-82
2023/12/26 20:21:43;;;;;;;14.43;6.07;;;7.90;99.90;;;;;;5101915;28;20176;-87
2023/12/26 20:24:09;;;;;;;18.10;6.30;;;7.90;99.90;;;;;;5100443;28;20169;-79
2023/12/26 20:26:43;;;;;;;14.67;5.60;;;7.90;99.90;;;;;;5098568;28;20177;-81
2023/12/26 20:29:12;;;;;;;19.13;6.13;;;7.90;99.90;;;;;;5087668;28;20637;-89
2023/12/26 20:31:37;;;;;;;14.40;5.53;;;7.90;99.90;;;;;;5064537;28;20202;-87
2023/12/26 20:34:03;;;;;;;17.03;6.43;;;7.90;99.90;;;;;;5078970;28;20211;-82
2023/12/26 20:36:29;;;;;;;14.17;5.87;;;7.90;99.90;;;;;;5071496;28;20263;-82
2023/12/26 20:38:54;;;;;;;19.97;7.00;;;7.90;99.90;;;;;;5087391;28;20287;-78
2023/12/26 20:41:21;;;;;;;18.90;6.33;;;7.90;99.90;;;;;;5078666;28;20259;-84
2023/12/26 20:43:46;;;;;;;20.07;7.17;;;7.90;99.90;;;;;;5085049;28;20653;-83
2023/12/26 20:46:13;;;;;;;14.87;6.63;;;7.90;99.90;;;;;;5086803;28;20176;-77
2023/12/26 20:48:39;;;;;;;12.33;6.07;;;7.80;99.90;;;;;;5082368;28;20225;-81
2023/12/26 20:51:05;;;;;;;14.97;6.30;;;7.80;99.90;;;;;;5081826;28;20234;-82
2023/12/26 20:53:31;;;;;;;14.93;6.27;;;7.80;99.90;;;;;;5067581;28;20227;-81
2023/12/26 20:55:56;;;;;;;13.60;6.27;;;7.80;99.90;;;;;;5084248;28;20180;-81
2023/12/26 20:58:22;;;;;;;14.67;6.40;;;7.80;99.90;;;;;;5061617;28;20276;-82
2023/12/26 21:00:48;;;;;;;17.13;6.80;;;7.80;99.90;;;;;;5078418;28;20631;-79
2023/12/26 21:03:13;;;;;;;16.83;6.83;;;7.80;99.90;;;;;;5065468;28;20229;-82
2023/12/26 21:05:41;;;;;;;22.40;7.37;;;7.80;99.90;;;;;;5090069;28;20172;-81
2023/12/26 21:08:07;;;;;;;16.67;6.43;;;7.80;99.90;;;;;;5076148;28;20179;-80
2023/12/26 21:10:33;;;;;;;15.13;6.70;;;7.80;99.90;;;;;;5077466;28;20177;-81
2023/12/26 21:12:59;;;;;;;17.87;6.80;;;7.80;99.90;;;;;;5083956;28;20208;-82
2023/12/26 21:15:25;;;;;;;17.50;6.33;;;7.80;99.90;;;;;;5081655;28;20168;-82
2023/12/26 21:17:51;;;;;;;13.43;6.07;;;7.80;99.90;;;;;;5078372;28;20234;-80
2023/12/26 21:20:16;;;;;;;11.73;5.93;;;7.90;99.90;;;;;;5076907;28;20252;-81
2023/12/26 21:22:42;;;;;;;14.73;6.67;;;7.80;99.90;;;;;;5079384;28;20188;-84
2023/12/26 21:25:08;;;;;;;15.13;6.00;;;7.80;99.90;;;;;;5081777;28;20229;-83
2023/12/26 21:27:34;;;;;;;13.77;6.00;;;7.80;99.90;;;;;;5067166;28;20228;-82
2023/12/26 21:30:00;;;;;;;13.40;6.03;;;7.80;99.90;;;;;;5085622;28;20254;-86
2023/12/26 21:32:27;;;;;;;14.83;5.87;;;7.80;99.90;;;;;;5076977;28;20260;-87
2023/12/26 21:34:52;;;;;;;13.37;6.00;;;7.80;99.90;;;;;;5078366;28;20230;-84
2023/12/26 21:37:18;;;;;;;18.50;6.20;;;7.70;99.90;;;;;;5079271;28;20172;-83
2023/12/26 21:39:44;;;;;;;14.53;5.53;;;7.70;99.90;;;;;;5076903;28;20239;-85
2023/12/26 21:42:09;;;;;;;11.73;5.20;;;7.70;99.90;;;;;;5095674;28;20289;-85
2023/12/26 21:44:38;;;;;;;10.90;4.60;;;7.70;99.90;;;;;;5085624;28;20176;-84
2023/12/26 21:47:04;;;;;;;14.53;5.30;;;7.70;99.90;;;;;;5092611;28;20167;-83
2023/12/26 21:49:30;;;;;;;14.43;4.60;;;7.70;99.90;;;;;;5091512;28;20176;-85
2023/12/26 21:51:56;;;;;;;8.70;4.00;;;7.70;99.90;;;;;;5082456;28;20571;-86
2023/12/26 21:54:21;;;;;;;12.63;4.60;;;7.60;99.90;;;;;;5066958;28;20675;-87
2023/12/26 21:56:47;;;;;;;8.97;4.30;;;7.60;99.90;;;;;;5091523;28;20202;-86
2023/12/26 21:59:13;;;;;;;8.67;4.10;;;7.70;99.90;;;;;;5105744;28;20207;-84
2023/12/26 22:01:39;;;;;;;12.47;4.70;;;7.60;99.90;;;;;;5106236;28;20167;-89
2023/12/26 22:04:04;;;;;;;12.47;4.37;;;7.50;99.90;;;;;;5085525;28;20183;-88
2023/12/26 22:06:30;;;;;;;14.13;4.97;;;7.60;99.90;;;;;;5083401;28;20203;-87
2023/12/26 22:08:56;;;;;;;8.97;4.40;;;7.50;99.90;;;;;;5065631;28;20229;-85
2023/12/26 22:11:21;;;;;;;14.13;4.97;;;7.50;99.90;;;;;;5091494;28;20189;-84
2023/12/26 22:13:47;;;;;;;8.47;4.33;;;7.50;99.90;;;;;;5082711;28;20214;-85
2023/12/26 22:16:20;;;;;;;12.37;4.77;;;7.50;99.90;;;;;;5084416;28;20176;-83
2023/12/26 22:18:46;;;;;;;8.77;4.40;;;7.50;99.90;;;;;;5083966;28;20634;-84
2023/12/26 22:21:13;;;;;;;8.50;4.20;;;7.60;99.90;;;;;;5083800;28;20175;-85
2023/12/26 22:23:39;;;;;;;9.07;4.07;;;7.60;99.90;;;;;;5061416;28;20180;-85
2023/12/26 22:26:04;;;;;;;9.13;4.47;;;7.60;99.90;;;;;;5084780;28;20665;-85
2023/12/26 22:28:31;;;;;;;8.13;4.13;;;7.60;99.90;;;;;;5095894;28;20592;-84
2023/12/26 22:30:57;;;;;;;9.50;4.30;;;7.50;99.90;;;;;;5083305;28;20191;-85
2023/12/26 22:33:22;;;;;;;12.00;4.57;;;7.50;99.90;;;;;;5087004;28;20224;-84
2023/12/26 22:35:48;;;;;;;8.87;4.50;;;7.50;99.90;;;;;;5081548;28;20313;-83
2023/12/26 22:38:17;;;;;;;10.73;4.50;;;7.50;99.90;;;;;;5078743;28;20186;-84
2023/12/26 22:40:43;;;;;;;11.73;4.70;;;7.50;99.90;;;;;;5061582;28;20164;-82
2023/12/26 22:43:08;;;;;;;13.17;4.67;;;7.60;99.90;;;;;;5083343;28;20180;-83
2023/12/26 22:45:34;;;;;;;13.60;4.93;;;7.50;99.90;;;;;;5070717;28;20169;-83
